Time;durP1;ratioP1;P1;durP2;ratioP2;P2;SDS_P1;SDS_P2;PMS_P1;PMS_P2;Temp;Humidity;BMP_temperature;BMP_pressure;BME280_temperature;BME280_humidity;BME280_pressure;Samples;Min_cycle;Max_cycle;Signal;HPM_P1;HPM_P2
2022/06/19 00:00:56;;;;;;;13.38;5.28;;;23.80;69.20;;;;;;4911408;28;20098;-82
2022/06/19 00:03:28;;;;;;;10.60;5.40;;;23.70;68.20;;;;;;4907447;28;20051;-83
2022/06/19 00:05:53;;;;;;;10.60;5.88;;;23.70;68.00;;;;;;4922449;28;20531;-82
2022/06/19 00:08:19;;;;;;;10.75;5.00;;;23.50;68.70;;;;;;4902623;28;20075;-82
2022/06/19 00:10:45;;;;;;;10.75;5.43;;;23.50;67.40;;;;;;4907594;29;20028;-83
2022/06/19 00:13:10;;;;;;;11.43;5.43;;;23.50;67.70;;;;;;4917373;28;20047;-83
2022/06/19 00:15:36;;;;;;;10.88;5.07;;;23.40;67.60;;;;;;4922965;28;20099;-82
2022/06/19 00:18:01;;;;;;;7.57;5.43;;;23.40;70.50;;;;;;4921331;28;20042;-82
2022/06/19 00:20:27;;;;;;;8.43;5.55;;;23.40;68.70;;;;;;4937908;28;20039;-82
2022/06/19 00:22:52;;;;;;;6.07;4.75;;;23.30;69.40;;;;;;4906177;29;20166;-83
2022/06/19 00:25:18;;;;;;;5.90;5.13;;;23.30;70.10;;;;;;4908969;29;20118;-82
2022/06/19 00:27:44;;;;;;;7.43;5.15;;;23.20;73.30;;;;;;4918607;28;20040;-83
2022/06/19 00:30:11;;;;;;;9.60;5.43;;;23.20;68.70;;;;;;4937684;28;20035;-82
2022/06/19 00:32:36;;;;;;;15.93;5.82;;;23.10;71.00;;;;;;4902932;29;20407;-82
2022/06/19 00:35:03;;;;;;;10.73;5.43;;;23.10;68.10;;;;;;4905565;29;20023;-82
2022/06/19 00:37:29;;;;;;;11.07;5.10;;;23.10;67.80;;;;;;4912331;28;20086;-82
2022/06/19 00:39:55;;;;;;;14.93;5.47;;;23.10;68.20;;;;;;4906991;28;20039;-82
2022/06/19 00:42:24;;;;;;;7.47;4.55;;;23.00;74.50;;;;;;4910530;28;20055;-82
2022/06/19 00:44:51;;;;;;;7.50;5.25;;;23.10;70.00;;;;;;4923340;28;20043;-81
2022/06/19 00:47:26;;;;;;;8.90;4.35;;;22.80;70.70;;;;;;4933311;29;20578;-82
2022/06/19 00:49:51;;;;;;;12.50;5.55;;;22.80;69.50;;;;;;4939834;28;20530;-82
2022/06/19 00:52:22;;;;;;;5.82;5.00;;;22.80;68.40;;;;;;4953105;28;20070;-82
2022/06/19 00:54:54;;;;;;;4.93;4.43;;;22.60;70.50;;;;;;4899419;28;20475;-82
2022/06/19 00:57:19;;;;;;;6.43;4.65;;;22.60;71.30;;;;;;4934737;28;20031;-82
2022/06/19 00:59:47;;;;;;;11.70;5.03;;;22.50;71.20;;;;;;4918934;28;20031;-82
2022/06/19 01:02:13;;;;;;;8.05;4.10;;;22.40;71.00;;;;;;4919984;28;20150;-82
2022/06/19 01:04:48;;;;;;;9.13;4.80;;;22.60;70.10;;;;;;4919146;28;20491;-82
2022/06/19 01:07:14;;;;;;;7.38;4.03;;;22.50;69.70;;;;;;4919844;28;20042;-82
2022/06/19 01:09:39;;;;;;;9.13;4.60;;;22.40;70.20;;;;;;4923625;28;20487;-82
2022/06/19 01:12:08;;;;;;;11.95;5.15;;;22.30;69.70;;;;;;4920695;29;20773;-82
2022/06/19 01:14:33;;;;;;;9.70;5.10;;;22.30;69.70;;;;;;4921997;28;20135;-82
2022/06/19 01:17:01;;;;;;;8.05;5.25;;;22.20;71.20;;;;;;4903376;29;20051;-82
2022/06/19 01:19:28;;;;;;;8.82;4.72;;;22.20;70.40;;;;;;4928877;29;20024;-82
2022/06/19 01:22:06;;;;;;;12.65;4.43;;;22.10;70.10;;;;;;4924027;29;20042;-82
2022/06/19 01:24:49;;;;;;;10.18;4.72;;;22.00;71.20;;;;;;4904154;28;20035;-82
2022/06/19 01:28:45;;;;;;;5.57;4.20;;;22.00;70.30;;;;;;4932564;29;20039;-81
2022/06/19 01:30:02;;;;;;;8.40;5.75;;;22.10;70.40;;;;;;4926995;28;20065;-82
2022/06/19 01:32:27;;;;;;;5.45;4.85;;;22.00;69.70;;;;;;4921862;29;20035;-81
2022/06/19 01:34:53;;;;;;;6.15;3.55;;;21.90;73.80;;;;;;4902016;28;20090;-82
2022/06/19 01:37:21;;;;;;;9.38;4.90;;;22.00;69.00;;;;;;4924053;29;20049;-81
2022/06/19 01:39:52;;;;;;;6.82;5.03;;;22.00;68.60;;;;;;4907679;28;20491;-81
2022/06/19 01:42:18;;;;;;;10.30;4.85;;;21.90;70.20;;;;;;4918643;28;20031;-81
2022/06/19 01:44:44;;;;;;;8.27;5.22;;;21.80;70.70;;;;;;4900764;29;20106;-82
2022/06/19 01:47:10;;;;;;;7.50;4.97;;;21.70;70.20;;;;;;4906527;28;20059;-81
2022/06/19 01:49:35;;;;;;;9.80;5.20;;;21.60;69.20;;;;;;4904053;28;20090;-81
2022/06/19 01:52:05;;;;;;;11.80;5.03;;;21.60;68.80;;;;;;4905252;28;20061;-81
2022/06/19 01:54:37;;;;;;;9.48;5.38;;;21.50;71.60;;;;;;4917555;28;20665;-81
2022/06/19 01:57:05;;;;;;;6.68;5.40;;;21.50;70.00;;;;;;4919104;28;20443;-81
2022/06/19 01:59:31;;;;;;;8.05;5.95;;;21.30;70.80;;;;;;4920945;28;20053;-81
2022/06/19 02:01:57;;;;;;;12.77;5.78;;;21.30;71.10;;;;;;4910427;29;20039;-81
2022/06/19 02:04:23;;;;;;;8.80;5.47;;;21.30;71.90;;;;;;4903443;28;20074;-81
2022/06/19 02:06:49;;;;;;;9.50;5.20;;;21.20;71.90;;;;;;4903560;28;20047;-81
2022/06/19 02:09:16;;;;;;;6.80;4.82;;;21.10;72.10;;;;;;4901992;29;20376;-82
2022/06/19 02:11:42;;;;;;;5.63;5.03;;;21.00;71.90;;;;;;4922818;28;20031;-81
2022/06/19 02:14:10;;;;;;;10.07;5.15;;;20.90;73.90;;;;;;4906987;28;20127;-81
2022/06/19 02:16:38;;;;;;;6.28;4.55;;;21.00;74.00;;;;;;4920731;28;20031;-81
2022/06/19 02:19:03;;;;;;;8.50;5.18;;;20.90;77.30;;;;;;4903748;28;20046;-81
2022/06/19 02:21:43;;;;;;;11.75;5.68;;;20.90;78.00;;;;;;4907656;28;20035;-81
2022/06/19 02:24:12;;;;;;;11.20;5.40;;;20.80;75.00;;;;;;4935878;29;20031;-81
2022/06/19 02:26:38;;;;;;;6.47;4.72;;;20.70;75.60;;;;;;4903368;29;20065;-81
2022/06/19 02:29:06;;;;;;;6.72;3.75;;;20.70;75.30;;;;;;4916927;29;20135;-81
2022/06/19 02:31:33;;;;;;;5.35;3.53;;;20.70;75.10;;;;;;4905667;28;20043;-81
2022/06/19 02:34:01;;;;;;;6.82;3.15;;;20.60;75.60;;;;;;4919510;28;20505;-81
2022/06/19 02:36:38;;;;;;;4.85;3.40;;;20.50;78.00;;;;;;4918729;28;20034;-81
2022/06/19 02:39:16;;;;;;;6.40;3.65;;;20.40;77.20;;;;;;4934920;28;20027;-81
2022/06/19 02:41:45;;;;;;;3.10;2.80;;;20.40;77.10;;;;;;4924998;28;20023;-81
2022/06/19 02:44:11;;;;;;;9.48;3.30;;;20.40;76.50;;;;;;4916336;28;20035;-81
2022/06/19 02:46:36;;;;;;;5.20;3.10;;;20.40;76.30;;;;;;4919464;28;20426;-81
2022/06/19 02:49:03;;;;;;;8.30;3.55;;;20.40;77.10;;;;;;4920015;28;20102;-81
2022/06/19 02:51:29;;;;;;;6.13;3.28;;;20.30;78.30;;;;;;4905934;28;20038;-81
2022/06/19 02:53:54;;;;;;;3.90;2.65;;;20.30;77.30;;;;;;4911428;28;20039;-81
2022/06/19 02:56:20;;;;;;;5.20;3.13;;;20.20;77.10;;;;;;4915769;29;20067;-81
2022/06/19 02:58:46;;;;;;;4.78;2.33;;;20.10;76.60;;;;;;4920749;28;20086;-81
2022/06/19 03:01:13;;;;;;;4.07;3.00;;;20.00;77.50;;;;;;4938969;28;20027;-81
2022/06/19 03:03:38;;;;;;;5.10;2.70;;;19.90;78.20;;;;;;4935956;28;20042;-81
2022/06/19 03:06:04;;;;;;;6.20;2.30;;;19.70;79.20;;;;;;4927552;28;20065;-81
2022/06/19 03:08:31;;;;;;;4.75;3.10;;;19.80;79.80;;;;;;4927404;28;20093;-81
2022/06/19 03:10:56;;;;;;;3.65;3.13;;;19.90;78.90;;;;;;4907850;29;20067;-81
2022/06/19 03:13:22;;;;;;;6.05;3.10;;;19.90;78.10;;;;;;4911736;28;20038;-81
2022/06/19 03:15:58;;;;;;;6.07;3.10;;;19.70;79.50;;;;;;4924574;28;20077;-80
2022/06/19 03:18:23;;;;;;;11.13;2.80;;;19.50;80.00;;;;;;4909141;29;20062;-81
2022/06/19 03:20:49;;;;;;;7.05;2.92;;;19.40;82.30;;;;;;4907394;28;20664;-81
2022/06/19 03:23:15;;;;;;;4.90;2.90;;;19.50;81.10;;;;;;4939386;28;20042;-81
2022/06/19 03:25:40;;;;;;;5.03;3.17;;;19.50;80.80;;;;;;4906160;28;20507;-81
2022/06/19 03:28:06;;;;;;;7.90;3.10;;;19.70;79.40;;;;;;4951734;28;20437;-81
2022/06/19 03:30:31;;;;;;;7.55;2.83;;;19.30;81.70;;;;;;4921142;28;20529;-81
2022/06/19 03:32:57;;;;;;;7.35;2.78;;;19.30;82.40;;;;;;4955447;28;20518;-81
2022/06/19 03:35:22;;;;;;;6.65;2.58;;;19.40;82.00;;;;;;4920571;28;20114;-80
2022/06/19 03:37:48;;;;;;;7.40;2.60;;;19.10;84.00;;;;;;4908136;28;20483;-81
2022/06/19 03:40:14;;;;;;;4.60;2.53;;;19.20;83.30;;;;;;4904111;28;20487;-81
2022/06/19 03:42:39;;;;;;;5.80;2.42;;;19.20;83.60;;;;;;4910957;28;20102;-81
2022/06/19 03:45:06;;;;;;;4.55;2.22;;;19.10;83.70;;;;;;4937791;28;20050;-80
2022/06/19 03:47:32;;;;;;;5.13;2.22;;;19.10;83.50;;;;;;4922716;28;20086;-81
2022/06/19 03:49:57;;;;;;;7.38;2.90;;;19.10;83.20;;;;;;4918712;29;20031;-81
2022/06/19 03:52:23;;;;;;;7.80;3.45;;;19.00;84.50;;;;;;4907304;28;20040;-80
2022/06/19 03:54:48;;;;;;;8.90;2.08;;;18.90;83.60;;;;;;4939947;29;20039;-81
2022/06/19 03:57:14;;;;;;;6.57;2.17;;;19.00;83.80;;;;;;4904560;29;20032;-81
2022/06/19 03:59:40;;;;;;;9.00;2.40;;;19.00;83.30;;;;;;4924370;28;20110;-81
2022/06/19 04:02:08;;;;;;;4.65;2.20;;;18.90;83.10;;;;;;4922700;29;20098;-81
2022/06/19 04:04:35;;;;;;;7.53;2.17;;;18.90;82.70;;;;;;4935678;28;20039;-81
2022/06/19 04:07:00;;;;;;;7.68;2.58;;;18.90;82.20;;;;;;4922346;28;20121;-81
2022/06/19 04:09:26;;;;;;;7.53;2.42;;;18.90;81.80;;;;;;4922726;28;20420;-81
2022/06/19 04:11:52;;;;;;;7.90;2.20;;;19.00;81.50;;;;;;4921560;28;20546;-80
2022/06/19 04:14:17;;;;;;;9.05;2.33;;;18.80;81.60;;;;;;4911395;28;20179;-81
2022/06/19 04:16:43;;;;;;;10.10;2.72;;;18.70;81.40;;;;;;4905661;28;20031;-81
2022/06/19 04:19:09;;;;;;;10.85;3.40;;;18.60;79.90;;;;;;4934751;28;20030;-81
2022/06/19 04:21:38;;;;;;;6.07;1.85;;;18.60;80.10;;;;;;4921341;28;20055;-81
2022/06/19 04:24:04;;;;;;;8.13;2.05;;;18.60;79.60;;;;;;4903023;29;20399;-81
2022/06/19 04:26:33;;;;;;;10.52;1.90;;;18.90;78.80;;;;;;4906158;28;20039;-81
2022/06/19 04:28:59;;;;;;;12.57;2.83;;;19.00;78.20;;;;;;4918156;28;20037;-81
2022/06/19 04:31:25;;;;;;;9.75;2.67;;;18.90;77.20;;;;;;4918950;29;20140;-81
2022/06/19 04:33:51;;;;;;;14.07;2.60;;;18.90;77.20;;;;;;4920265;29;20388;-81
2022/06/19 04:36:17;;;;;;;20.00;2.47;;;18.80;76.20;;;;;;4908249;28;20035;-81
2022/06/19 04:38:43;;;;;;;8.88;2.45;;;18.90;76.20;;;;;;4907190;28;20039;-81
2022/06/19 04:41:20;;;;;;;13.15;2.95;;;19.10;75.20;;;;;;4929861;29;20734;-81
2022/06/19 04:43:45;;;;;;;15.32;2.58;;;19.10;74.50;;;;;;4900133;28;20050;-81
2022/06/19 04:46:11;;;;;;;7.82;1.80;;;19.20;74.30;;;;;;4922418;28;20482;-82
2022/06/19 04:48:37;;;;;;;11.52;3.13;;;19.20;73.20;;;;;;4920575;28;20493;-81
2022/06/19 04:51:03;;;;;;;13.45;2.50;;;19.20;72.50;;;;;;4922004;28;20866;-81
2022/06/19 04:53:28;;;;;;;12.65;2.97;;;19.30;71.90;;;;;;4921483;29;20114;-81
2022/06/19 04:55:55;;;;;;;13.27;2.95;;;19.30;71.60;;;;;;4919886;29;20091;-81
2022/06/19 04:58:23;;;;;;;12.90;2.70;;;19.40;71.40;;;;;;4921353;28;20126;-81
2022/06/19 05:00:52;;;;;;;9.23;2.92;;;19.60;71.00;;;;;;4905295;28;20027;-81
2022/06/19 05:03:19;;;;;;;13.23;2.45;;;19.70;70.70;;;;;;4926174;28;20401;-81
2022/06/19 05:05:44;;;;;;;12.10;2.88;;;19.70;70.00;;;;;;4905511;28;20089;-81
2022/06/19 05:08:10;;;;;;;10.00;1.95;;;19.90;70.10;;;;;;4921276;28;20034;-81
2022/06/19 05:10:35;;;;;;;8.38;2.28;;;20.00;69.60;;;;;;4920736;29;20040;-81
2022/06/19 05:13:02;;;;;;;13.35;2.17;;;20.20;69.00;;;;;;4921805;28;20035;-81
2022/06/19 05:15:28;;;;;;;19.13;3.92;;;20.40;69.00;;;;;;4913688;29;20536;-81
2022/06/19 05:17:53;;;;;;;13.15;2.70;;;20.40;67.70;;;;;;4918149;29;20118;-81
2022/06/19 05:20:19;;;;;;;15.15;2.65;;;20.50;68.10;;;;;;4919454;28;20037;-81
2022/06/19 05:22:45;;;;;;;12.32;3.60;;;20.70;67.60;;;;;;4931584;28;20115;-81
2022/06/19 05:25:10;;;;;;;17.40;3.17;;;20.90;66.30;;;;;;4903748;28;20039;-81
2022/06/19 05:27:37;;;;;;;12.63;2.15;;;21.00;66.10;;;;;;4907420;28;20461;-81
2022/06/19 05:30:03;;;;;;;11.55;1.90;;;20.90;65.30;;;;;;4904333;28;20487;-81
2022/06/19 05:32:29;;;;;;;12.63;2.72;;;21.10;64.80;;;;;;4910264;28;20059;-81
2022/06/19 05:34:54;;;;;;;10.95;2.40;;;21.20;64.20;;;;;;4914042;28;20089;-81
2022/06/19 05:37:20;;;;;;;9.93;3.08;;;21.40;63.90;;;;;;4921636;28;20035;-81
2022/06/19 05:39:46;;;;;;;10.65;2.38;;;21.40;61.90;;;;;;4918838;28;20087;-81
2022/06/19 05:42:11;;;;;;;8.98;2.63;;;21.50;61.90;;;;;;4937285;28;20034;-81
2022/06/19 05:44:37;;;;;;;9.93;2.72;;;21.70;61.50;;;;;;4920681;28;20062;-81
2022/06/19 05:47:03;;;;;;;9.05;2.85;;;21.80;60.60;;;;;;4919149;28;20043;-81
2022/06/19 05:49:31;;;;;;;10.70;2.22;;;21.90;59.60;;;;;;4918623;28;20031;-81
2022/06/19 05:51:57;;;;;;;11.90;1.60;;;22.00;60.50;;;;;;4917448;28;20031;-81
2022/06/19 05:54:23;;;;;;;14.18;2.28;;;22.20;60.90;;;;;;4906529;28;20031;-81
2022/06/19 05:56:48;;;;;;;8.50;1.90;;;22.40;60.60;;;;;;4899328;29;20031;-80
2022/06/19 05:59:14;;;;;;;9.05;2.10;;;22.50;59.90;;;;;;4903579;28;20019;-81
2022/06/19 06:01:39;;;;;;;7.65;1.92;;;22.50;58.30;;;;;;4920004;29;20042;-81
2022/06/19 06:04:05;;;;;;;13.65;2.88;;;22.80;59.40;;;;;;4913258;28;20028;-81
2022/06/19 06:06:31;;;;;;;11.18;2.60;;;22.90;58.20;;;;;;4922172;28;20050;-81
2022/06/19 06:08:57;;;;;;;10.50;2.20;;;23.10;58.20;;;;;;4907684;28;20039;-81
2022/06/19 06:11:22;;;;;;;14.55;2.47;;;23.30;58.10;;;;;;4920358;29;20039;-81
2022/06/19 06:13:48;;;;;;;9.65;2.25;;;23.50;58.80;;;;;;4916614;29;20553;-81
2022/06/19 06:16:16;;;;;;;10.07;2.33;;;23.70;58.40;;;;;;4935459;28;20039;-80
2022/06/19 06:18:42;;;;;;;12.27;2.00;;;23.70;58.20;;;;;;4919177;28;20693;-80
2022/06/19 06:21:14;;;;;;;12.40;2.30;;;24.00;58.60;;;;;;4906488;29;20235;-81
2022/06/19 06:23:41;;;;;;;15.07;2.72;;;24.10;58.00;;;;;;4934091;28;20038;-81
2022/06/19 06:26:08;;;;;;;12.93;2.85;;;24.00;58.00;;;;;;4902820;28;20607;-82
2022/06/19 06:28:35;;;;;;;6.72;2.20;;;24.30;57.10;;;;;;4921212;28;20042;-81
2022/06/19 06:31:01;;;;;;;10.57;2.13;;;24.40;56.60;;;;;;4924606;28;20039;-81
2022/06/19 06:33:27;;;;;;;12.82;2.80;;;24.20;56.30;;;;;;4918182;29;20036;-81
2022/06/19 06:35:52;;;;;;;7.20;1.75;;;24.40;56.20;;;;;;4934871;28;20119;-81
2022/06/19 06:38:18;;;;;;;9.52;3.08;;;24.50;56.80;;;;;;4920427;29;20462;-81
2022/06/19 06:40:43;;;;;;;14.88;2.97;;;24.70;56.50;;;;;;4919214;28;20058;-81
2022/06/19 06:43:09;;;;;;;13.30;2.97;;;24.80;56.80;;;;;;4923454;28;20035;-81
2022/06/19 06:45:35;;;;;;;9.93;2.50;;;24.90;56.60;;;;;;4919858;28;20134;-81
2022/06/19 06:48:00;;;;;;;12.23;2.60;;;25.00;56.50;;;;;;4905879;28;20035;-82
2022/06/19 06:50:26;;;;;;;9.13;2.55;;;25.10;56.20;;;;;;4909704;29;20043;-81
2022/06/19 06:52:52;;;;;;;13.15;2.67;;;25.20;56.00;;;;;;4932317;29;20483;-81
2022/06/19 06:55:18;;;;;;;8.85;2.20;;;25.50;55.60;;;;;;4917744;28;20096;-81
2022/06/19 06:57:43;;;;;;;12.60;3.25;;;25.60;55.60;;;;;;4904076;28;20046;-82
2022/06/19 07:00:11;;;;;;;12.57;2.20;;;25.90;55.40;;;;;;4921135;28;20042;-81
2022/06/19 07:02:37;;;;;;;9.43;2.28;;;26.10;54.30;;;;;;4920571;29;20027;-81
2022/06/19 07:05:02;;;;;;;8.10;2.53;;;26.10;55.10;;;;;;4927313;29;20500;-81
2022/06/19 07:07:28;;;;;;;11.07;2.30;;;26.30;55.40;;;;;;4950924;28;20089;-81
2022/06/19 07:09:54;;;;;;;7.30;2.28;;;26.60;54.60;;;;;;4882574;29;20056;-81
2022/06/19 07:12:19;;;;;;;9.73;2.58;;;26.80;53.90;;;;;;4904083;28;20042;-81
2022/06/19 07:14:45;;;;;;;12.20;2.17;;;27.00;53.30;;;;;;4921206;28;20030;-81
2022/06/19 07:17:10;;;;;;;12.32;2.75;;;27.10;53.50;;;;;;4918115;29;20114;-81
2022/06/19 07:19:36;;;;;;;8.88;2.70;;;27.40;53.30;;;;;;4902460;28;20031;-82
2022/06/19 07:22:02;;;;;;;9.02;2.10;;;27.70;52.30;;;;;;4905175;28;20407;-82
2022/06/19 07:24:27;;;;;;;8.75;2.50;;;27.90;51.70;;;;;;4904185;28;20031;-82
2022/06/19 07:26:53;;;;;;;10.15;2.58;;;28.00;51.00;;;;;;4921110;29;20058;-82
2022/06/19 07:29:18;;;;;;;11.88;2.28;;;28.30;50.50;;;;;;4917128;29;20047;-82
2022/06/19 07:31:44;;;;;;;9.63;1.95;;;28.30;50.80;;;;;;4910972;28;20024;-82
2022/06/19 07:34:09;;;;;;;10.20;2.40;;;28.50;51.10;;;;;;4917794;29;20035;-81
2022/06/19 07:36:35;;;;;;;11.40;3.08;;;28.70;50.70;;;;;;4915537;28;20503;-82
2022/06/19 07:39:01;;;;;;;10.10;2.63;;;29.00;50.70;;;;;;4903334;29;20460;-82
2022/06/19 07:41:26;;;;;;;9.00;2.53;;;29.00;51.10;;;;;;4931110;28;20037;-82
2022/06/19 07:43:52;;;;;;;10.82;2.80;;;28.90;50.90;;;;;;4900866;28;20381;-82
2022/06/19 07:46:18;;;;;;;8.15;2.63;;;28.90;49.90;;;;;;4907539;28;20125;-83
2022/06/19 07:51:29;;;;;;;8.85;2.63;;;28.90;48.90;;;;;;4937509;28;20403;-85
2022/06/19 07:53:54;;;;;;;8.20;2.15;;;28.90;49.40;;;;;;4921041;28;20027;-89
2022/06/19 07:56:20;;;;;;;7.72;2.08;;;29.20;49.20;;;;;;4902169;29;20031;-83
2022/06/19 07:58:46;;;;;;;7.30;1.60;;;29.20;49.20;;;;;;4920509;29;20035;-82
2022/06/19 08:01:12;;;;;;;11.63;3.03;;;29.50;48.30;;;;;;4923901;28;20436;-83
2022/06/19 08:03:38;;;;;;;9.98;2.92;;;29.40;48.20;;;;;;4936326;29;20035;-84
2022/06/19 08:06:03;;;;;;;10.55;2.22;;;29.70;47.20;;;;;;4935953;29;20071;-84
2022/06/19 08:08:29;;;;;;;12.48;3.72;;;29.90;47.70;;;;;;4905155;28;20040;-84
2022/06/19 08:10:56;;;;;;;13.48;3.00;;;30.00;47.30;;;;;;4923639;28;20562;-85
2022/06/19 08:13:23;;;;;;;10.15;3.10;;;30.00;47.80;;;;;;4907766;28;20403;-84
2022/06/19 08:15:49;;;;;;;10.80;2.30;;;30.10;47.80;;;;;;4926117;29;20040;-84
2022/06/19 08:18:15;;;;;;;19.98;3.60;;;30.30;46.60;;;;;;4907094;29;20608;-84
2022/06/19 08:20:41;;;;;;;6.70;2.10;;;30.30;46.90;;;;;;4915248;28;20030;-84
2022/06/19 08:23:07;;;;;;;16.80;4.22;;;30.40;47.10;;;;;;4903042;29;20035;-84
2022/06/19 08:25:32;;;;;;;12.82;3.35;;;30.60;45.90;;;;;;4904756;29;20086;-84
2022/06/19 08:27:58;;;;;;;8.38;3.00;;;30.70;46.00;;;;;;4921413;29;20043;-84
2022/06/19 08:30:26;;;;;;;9.98;4.35;;;30.70;46.20;;;;;;4908730;29;20118;-83
2022/06/19 08:32:52;;;;;;;11.68;3.53;;;30.60;45.00;;;;;;4905356;28;20031;-84
2022/06/19 08:35:17;;;;;;;13.55;3.78;;;30.70;46.40;;;;;;4905094;29;20442;-85
2022/06/19 08:37:43;;;;;;;14.98;4.18;;;31.10;46.20;;;;;;4906072;29;20094;-84
2022/06/19 08:40:29;;;;;;;13.95;3.40;;;31.60;45.10;;;;;;4921204;28;20039;-85
2022/06/19 08:43:05;;;;;;;;;;;31.60;45.60;;;;;;4952885;28;20059;-85
2022/06/19 08:45:40;;;;;;;14.52;3.75;;;31.70;45.00;;;;;;4918408;29;19915;-86
2022/06/19 08:48:05;;;;;;;17.17;3.40;;;32.00;44.30;;;;;;4933265;29;20039;-86
2022/06/19 08:50:40;;;;;;;13.30;3.53;;;32.20;44.70;;;;;;4954457;28;20027;-87
2022/06/19 08:53:33;;;;;;;11.40;3.53;;;32.60;44.10;;;;;;4922332;28;20177;-86
2022/06/19 08:56:08;;;;;;;9.10;3.00;;;33.00;42.30;;;;;;4934386;29;20569;-87
2022/06/19 08:58:43;;;;;;;10.15;2.80;;;33.20;41.70;;;;;;4938616;28;20031;-85
2022/06/19 09:01:27;;;;;;;8.82;2.55;;;33.30;41.60;;;;;;4934886;28;20411;-87
2022/06/19 09:06:55;;;;;;;;;;;33.40;41.70;;;;;;4929273;28;20042;-85
2022/06/19 09:09:42;;;;;;;9.27;2.22;;;33.70;40.80;;;;;;4934905;28;19922;-85
2022/06/19 09:12:14;;;;;;;11.90;2.58;;;33.60;42.20;;;;;;4935189;29;20039;-87
2022/06/19 09:15:05;;;;;;;13.07;2.60;;;34.10;41.40;;;;;;4937800;28;20031;-87
2022/06/19 09:17:52;;;;;;;7.55;2.00;;;34.20;41.30;;;;;;4907233;28;20466;-87
2022/06/19 09:20:40;;;;;;;10.40;2.85;;;34.50;41.00;;;;;;4937603;28;20094;-87
2022/06/19 09:23:19;;;;;;;7.47;2.75;;;34.50;38.40;;;;;;4944035;28;20465;-88
2022/06/19 09:26:32;;;;;;;12.55;2.45;;;34.40;38.70;;;;;;4934573;28;20593;-87
2022/06/19 09:29:05;;;;;;;8.88;2.72;;;34.50;39.10;;;;;;4924540;28;20529;-88
2022/06/19 09:31:53;;;;;;;8.13;2.10;;;34.40;39.40;;;;;;4922189;28;20027;-87
2022/06/19 09:34:20;;;;;;;9.98;2.67;;;34.50;39.30;;;;;;4905316;28;20644;-87
2022/06/19 09:36:56;;;;;;;6.80;2.42;;;34.50;39.20;;;;;;4922727;28;20509;-87
2022/06/19 09:39:26;;;;;;;11.55;3.35;;;34.40;39.60;;;;;;4904021;28;20039;-87
2022/06/19 09:42:06;;;;;;;6.38;2.80;;;34.40;39.30;;;;;;4925736;28;20211;-87
2022/06/19 09:44:36;;;;;;;11.88;3.40;;;34.20;38.90;;;;;;4923759;28;20027;-88
2022/06/19 09:47:15;;;;;;;7.03;2.25;;;34.30;38.70;;;;;;4917149;28;20031;-87
2022/06/19 09:49:57;;;;;;;9.23;3.20;;;34.30;39.20;;;;;;4934195;28;20024;-86
2022/06/19 09:52:23;;;;;;;12.88;3.08;;;34.30;38.90;;;;;;4914301;29;20487;-88
2022/06/19 09:55:07;;;;;;;10.05;3.20;;;34.10;39.20;;;;;;4935726;28;20178;-85
2022/06/19 09:57:39;;;;;;;12.23;3.90;;;33.90;38.90;;;;;;4909698;28;20398;-85
2022/06/19 10:00:12;;;;;;;9.07;2.63;;;33.60;43.20;;;;;;4918571;29;21014;-87
2022/06/19 10:03:00;;;;;;;7.72;2.47;;;33.20;44.30;;;;;;4921696;28;20020;-85
2022/06/19 10:05:32;;;;;;;12.30;3.08;;;32.50;47.00;;;;;;4898609;28;20030;-86
2022/06/19 10:08:10;;;;;;;13.70;3.35;;;32.10;45.10;;;;;;4868795;29;1058975;-89
2022/06/19 10:10:48;;;;;;;10.75;2.47;;;31.80;44.40;;;;;;4901190;28;20051;-86
2022/06/19 10:13:30;;;;;;;5.68;2.50;;;31.70;44.10;;;;;;4905407;28;20039;-89
2022/06/19 10:15:56;;;;;;;9.05;3.20;;;31.50;43.80;;;;;;4910240;28;20039;-87
2022/06/19 10:18:26;;;;;;;11.57;3.30;;;31.40;43.80;;;;;;4905570;28;20031;-87
2022/06/19 10:21:02;;;;;;;9.55;3.85;;;31.30;43.60;;;;;;4911240;28;20046;-89
2022/06/19 10:24:04;;;;;;;12.48;2.75;;;31.20;43.30;;;;;;4928627;28;20035;-87
2022/06/19 10:26:54;;;;;;;14.30;3.60;;;31.30;43.80;;;;;;4917903;28;20406;-88
2022/06/19 10:29:24;;;;;;;10.02;3.30;;;31.40;43.10;;;;;;4939814;28;20031;-89
2022/06/19 10:31:55;;;;;;;12.63;4.07;;;31.40;42.80;;;;;;4917799;28;20483;-87
2022/06/19 10:34:47;;;;;;;9.02;3.25;;;31.30;42.60;;;;;;4920507;28;20034;-86
2022/06/19 10:37:35;;;;;;;10.10;3.20;;;31.10;44.10;;;;;;4929889;29;20035;-85
2022/06/19 10:40:19;;;;;;;13.20;3.50;;;30.90;46.00;;;;;;4918000;28;20037;-85
2022/06/19 10:42:54;;;;;;;14.07;3.45;;;30.60;45.50;;;;;;4921309;29;20090;-87
2022/06/19 10:45:46;;;;;;;11.65;4.35;;;30.40;45.10;;;;;;4935642;28;20039;-89
2022/06/19 10:48:32;;;;;;;8.77;3.13;;;30.30;45.10;;;;;;4921597;28;20039;-87
2022/06/19 10:51:19;;;;;;;13.85;3.05;;;30.30;45.30;;;;;;4921362;28;20042;-86
2022/06/19 10:54:00;;;;;;;12.27;3.10;;;30.30;45.20;;;;;;4929048;29;20043;-88
2022/06/19 10:56:44;;;;;;;8.90;2.47;;;30.40;45.40;;;;;;4934409;28;20034;-87
2022/06/19 10:59:09;;;;;;;9.30;2.78;;;30.70;44.80;;;;;;4935682;29;20473;-87
2022/06/19 11:04:39;;;;;;;12.68;3.70;;;31.10;43.60;;;;;;4925551;28;20190;-88
2022/06/19 11:07:11;;;;;;;11.60;3.17;;;31.20;43.30;;;;;;4920725;28;20034;-85
2022/06/19 11:09:48;;;;;;;11.77;3.53;;;31.30;44.00;;;;;;4919254;29;20054;-88
2022/06/19 11:12:22;;;;;;;13.30;2.90;;;31.20;43.80;;;;;;4913584;28;20031;-87
2022/06/19 11:14:59;;;;;;;16.50;3.30;;;31.50;44.40;;;;;;4932147;28;20053;-87
2022/06/19 11:17:35;;;;;;;12.95;2.88;;;31.80;43.80;;;;;;4916098;28;20035;-87
2022/06/19 11:20:16;;;;;;;17.73;3.60;;;32.40;42.30;;;;;;4930441;29;20056;-86
2022/06/19 11:22:42;;;;;;;12.55;2.85;;;32.40;42.10;;;;;;4948823;28;20094;-87
2022/06/19 11:25:19;;;;;;;14.10;3.05;;;32.40;42.50;;;;;;4920811;28;20045;-86
2022/06/19 11:27:59;;;;;;;12.75;3.72;;;32.60;42.60;;;;;;4921091;29;20560;-87
2022/06/19 11:30:44;;;;;;;10.35;3.03;;;32.90;42.20;;;;;;4915062;29;20059;-86
2022/06/19 11:33:28;;;;;;;11.65;2.70;;;33.10;41.80;;;;;;4907901;28;20043;-86
2022/06/19 11:35:57;;;;;;;10.90;3.03;;;33.30;42.40;;;;;;4938560;28;20233;-85
2022/06/19 11:38:44;;;;;;;8.20;2.30;;;33.50;41.90;;;;;;4912276;28;20506;-86
2022/06/19 11:41:18;;;;;;;10.23;2.50;;;33.60;42.10;;;;;;4923702;28;20038;-87
2022/06/19 11:43:44;;;;;;;11.35;2.90;;;33.80;41.20;;;;;;4908264;29;20067;-87
2022/06/19 11:46:25;;;;;;;14.65;3.88;;;33.80;40.80;;;;;;4922543;28;20066;-86
2022/06/19 11:48:50;;;;;;;11.45;2.63;;;33.80;41.10;;;;;;4909307;28;20392;-85
2022/06/19 11:51:18;;;;;;;12.25;3.15;;;33.80;40.90;;;;;;4902752;28;20035;-85
2022/06/19 11:53:43;;;;;;;8.95;2.25;;;33.80;41.10;;;;;;4904487;28;20455;-86
2022/06/19 11:56:32;;;;;;;12.52;2.40;;;33.80;41.10;;;;;;4919109;29;20055;-86
2022/06/19 11:59:03;;;;;;;14.32;3.20;;;34.00;41.00;;;;;;4904955;28;20040;-87
2022/06/19 12:01:42;;;;;;;14.63;3.53;;;33.90;41.40;;;;;;4900886;28;20035;-87
2022/06/19 12:04:33;;;;;;;13.05;3.35;;;34.00;40.60;;;;;;4917879;28;20039;-86
2022/06/19 12:07:17;;;;;;;11.05;2.75;;;33.90;40.70;;;;;;4917152;28;20110;-86
2022/06/19 12:09:52;;;;;;;9.52;3.08;;;34.10;41.30;;;;;;4904682;28;20046;-86
2022/06/19 12:12:19;;;;;;;13.40;3.45;;;34.10;41.60;;;;;;4917887;29;20036;-86
2022/06/19 12:14:47;;;;;;;9.50;3.05;;;34.30;41.80;;;;;;4915813;28;20515;-86
2022/06/19 12:17:25;;;;;;;8.02;2.47;;;34.40;40.70;;;;;;4935960;28;20058;-86
2022/06/19 12:20:05;;;;;;;17.25;3.33;;;34.50;40.80;;;;;;4935730;28;20087;-85
2022/06/19 12:22:36;;;;;;;11.20;3.67;;;34.60;40.20;;;;;;4953235;28;20819;-86
2022/06/19 12:25:12;;;;;;;13.45;2.70;;;34.60;39.80;;;;;;4922254;28;20473;-85
2022/06/19 12:27:52;;;;;;;11.10;2.67;;;34.40;40.70;;;;;;4920717;28;20042;-85
2022/06/19 12:30:25;;;;;;;10.50;2.67;;;34.60;41.20;;;;;;4914829;28;20050;-85
2022/06/19 12:32:51;;;;;;;10.73;3.88;;;34.70;41.00;;;;;;4925139;28;20518;-84
2022/06/19 12:35:32;;;;;;;16.75;4.22;;;34.90;39.50;;;;;;4903426;28;20054;-84
2022/06/19 12:37:57;;;;;;;14.43;3.40;;;35.10;39.50;;;;;;4922405;28;20074;-84
2022/06/19 12:40:25;;;;;;;9.18;3.20;;;35.00;40.10;;;;;;4919236;28;20114;-83
2022/06/19 12:42:59;;;;;;;14.18;4.30;;;35.10;40.00;;;;;;4920601;28;20563;-83
2022/06/19 12:45:49;;;;;;;10.63;2.88;;;35.20;39.60;;;;;;4905699;28;20043;-84
2022/06/19 12:48:20;;;;;;;13.30;3.95;;;35.20;40.40;;;;;;4922437;28;20035;-83
2022/06/19 12:50:48;;;;;;;12.90;3.95;;;35.20;40.50;;;;;;4919768;29;20035;-84
2022/06/19 12:53:43;;;;;;;10.82;3.47;;;35.20;40.10;;;;;;4917713;28;20026;-83
2022/06/19 12:56:59;;;;;;;10.82;3.38;;;35.50;39.20;;;;;;4948003;28;20039;-82
2022/06/19 12:59:46;;;;;;;6.40;2.53;;;35.50;39.20;;;;;;4832743;29;20038;-82
2022/06/19 13:02:25;;;;;;;18.38;4.05;;;35.40;40.50;;;;;;4912948;28;20039;-82
2022/06/19 13:04:53;;;;;;;13.70;3.40;;;35.50;40.00;;;;;;4906455;28;20109;-83
2022/06/19 13:07:29;;;;;;;10.50;2.53;;;35.60;40.10;;;;;;4923309;28;20030;-82